Time;durP1;ratioP1;P1;durP2;ratioP2;P2;SDS_P1;SDS_P2;PMS_P1;PMS_P2;Temp;Humidity;BMP_temperature;BMP_pressure;BME280_temperature;BME280_humidity;BME280_pressure;Samples;Min_cycle;Max_cycle;Signal;HPM_P1;HPM_P2
2021/09/04 00:00:13;;;;;;;10.00;6.70;;;21.20;76.30;;;;;;5077233;28;20039;-62
2021/09/04 00:02:39;;;;;;;10.07;6.45;;;21.20;76.40;;;;;;5060786;28;20038;-62
2021/09/04 00:05:05;;;;;;;7.78;5.82;;;21.20;76.50;;;;;;5062144;28;20032;-62
2021/09/04 00:07:32;;;;;;;9.00;6.63;;;21.10;77.20;;;;;;5083955;28;20036;-62
2021/09/04 00:09:58;;;;;;;10.23;5.95;;;21.10;76.70;;;;;;5050981;28;20768;-62
2021/09/04 00:12:24;;;;;;;42.33;8.90;;;21.10;76.80;;;;;;5082212;28;20017;-62
2021/09/04 00:14:49;;;;;;;20.75;8.00;;;21.10;77.00;;;;;;5084046;28;20028;-63
2021/09/04 00:17:15;;;;;;;41.10;10.23;;;21.10;77.00;;;;;;5050654;28;20187;-63
2021/09/04 00:19:40;;;;;;;38.25;8.65;;;21.00;77.10;;;;;;5084983;28;20032;-62
2021/09/04 00:22:06;;;;;;;41.67;9.82;;;21.00;77.20;;;;;;5083485;28;20067;-62
2021/09/04 00:24:31;;;;;;;48.90;9.52;;;21.00;77.30;;;;;;5067968;28;20526;-62
2021/09/04 00:26:57;;;;;;;41.10;9.95;;;21.00;77.80;;;;;;5084420;28;20035;-62
2021/09/04 00:29:22;;;;;;;58.53;10.77;;;21.00;77.50;;;;;;5085577;28;20020;-62
2021/09/04 00:31:48;;;;;;;42.90;10.57;;;21.00;77.60;;;;;;5064667;28;20871;-63
2021/09/04 00:34:14;;;;;;;43.35;10.32;;;20.90;77.90;;;;;;5063412;28;20411;-62
2021/09/04 00:36:40;;;;;;;37.80;10.75;;;21.00;78.10;;;;;;5083752;28;20028;-62
2021/09/04 00:39:06;;;;;;;51.83;11.48;;;20.90;78.10;;;;;;5067002;28;20067;-62
2021/09/04 00:41:34;;;;;;;37.35;10.80;;;20.90;78.00;;;;;;5084195;28;20024;-62
2021/09/04 00:44:00;;;;;;;39.17;11.63;;;20.90;78.10;;;;;;5067131;28;20031;-62
2021/09/04 00:46:25;;;;;;;32.30;10.10;;;20.90;78.20;;;;;;5084740;28;20036;-62
2021/09/04 00:48:51;;;;;;;28.17;9.65;;;20.80;78.30;;;;;;5083656;28;20123;-63
2021/09/04 00:51:16;;;;;;;31.90;8.88;;;20.80;78.40;;;;;;5084489;28;20111;-63
2021/09/04 00:53:42;;;;;;;33.95;9.85;;;20.80;78.50;;;;;;5086346;28;20032;-62
2021/09/04 00:56:07;;;;;;;28.00;8.65;;;20.80;78.60;;;;;;5083365;28;20108;-62
2021/09/04 00:58:33;;;;;;;29.55;9.63;;;20.80;78.60;;;;;;5066116;28;20102;-63
2021/09/04 01:00:58;;;;;;;32.78;9.40;;;20.70;78.60;;;;;;5065916;28;20123;-63
2021/09/04 01:03:24;;;;;;;36.17;9.65;;;20.70;79.40;;;;;;5082037;28;20144;-63
2021/09/04 01:05:50;;;;;;;36.83;9.50;;;20.80;79.00;;;;;;5066728;28;20442;-63
2021/09/04 01:08:15;;;;;;;26.00;9.10;;;20.70;79.70;;;;;;5084473;28;20028;-63
2021/09/04 01:10:41;;;;;;;33.60;9.45;;;20.70;79.20;;;;;;5048030;28;20142;-62
2021/09/04 01:13:06;;;;;;;32.25;9.23;;;20.70;79.20;;;;;;5075396;28;20198;-63
2021/09/04 01:15:32;;;;;;;31.90;9.80;;;20.70;79.30;;;;;;5050349;28;20036;-62
2021/09/04 01:18:04;;;;;;;36.15;9.27;;;20.70;79.40;;;;;;5067745;28;20039;-62
2021/09/04 01:20:30;;;;;;;36.80;9.25;;;20.60;79.40;;;;;;5083810;28;20038;-62
2021/09/04 01:22:56;;;;;;;26.85;9.30;;;20.60;79.40;;;;;;5083697;28;20044;-63
2021/09/04 01:25:25;;;;;;;25.30;8.93;;;20.60;79.40;;;;;;5083191;28;20051;-62
2021/09/04 01:27:51;;;;;;;26.40;10.15;;;20.60;79.50;;;;;;5080797;28;20082;-62
2021/09/04 01:30:16;;;;;;;46.85;11.68;;;20.60;79.60;;;;;;5084223;28;20060;-62
2021/09/04 01:32:42;;;;;;;73.38;12.23;;;20.50;79.90;;;;;;5064205;28;20043;-62
2021/09/04 01:35:09;;;;;;;71.95;11.73;;;20.50;79.80;;;;;;5061089;28;20146;-62
2021/09/04 01:37:35;;;;;;;45.47;10.50;;;20.50;79.90;;;;;;5066322;28;20040;-62
2021/09/04 01:40:00;;;;;;;47.83;10.25;;;20.50;80.00;;;;;;5065132;28;20063;-62
2021/09/04 01:42:26;;;;;;;32.22;9.40;;;20.50;80.20;;;;;;5084891;28;20408;-62
2021/09/04 01:44:51;;;;;;;43.92;10.27;;;20.40;80.20;;;;;;5049522;28;20443;-62
2021/09/04 01:47:17;;;;;;;38.30;10.13;;;20.40;80.20;;;;;;5049528;28;20388;-59
2021/09/04 01:49:42;;;;;;;34.28;9.40;;;20.40;80.40;;;;;;5065070;28;20730;-60
2021/09/04 01:52:08;;;;;;;44.08;10.40;;;20.40;80.50;;;;;;5048743;28;20039;-59
2021/09/04 01:54:34;;;;;;;28.48;10.20;;;20.40;80.50;;;;;;5065051;28;20040;-60
2021/09/04 01:57:01;;;;;;;29.95;9.43;;;20.40;80.50;;;;;;5083078;28;20537;-60
2021/09/04 01:59:27;;;;;;;34.00;9.75;;;20.40;80.60;;;;;;5082736;28;20024;-60
2021/09/04 02:01:52;;;;;;;28.08;8.80;;;20.30;80.60;;;;;;5078068;28;20032;-60
2021/09/04 02:04:18;;;;;;;30.17;10.65;;;20.30;80.60;;;;;;5079580;28;20102;-60
2021/09/04 02:06:43;;;;;;;27.73;9.60;;;20.30;80.60;;;;;;5083925;28;20032;-60
2021/09/04 02:09:09;;;;;;;39.13;10.70;;;20.30;80.60;;;;;;5065159;28;20036;-60
2021/09/04 02:11:34;;;;;;;33.10;9.80;;;20.30;80.70;;;;;;5082712;28;20045;-59
2021/09/04 02:14:00;;;;;;;24.08;9.98;;;20.20;80.70;;;;;;5080859;28;20024;-60
2021/09/04 02:16:25;;;;;;;28.08;10.35;;;20.30;80.90;;;;;;5063483;28;20024;-60
2021/09/04 02:18:51;;;;;;;35.80;10.32;;;20.20;81.00;;;;;;5064468;28;20016;-60
2021/09/04 02:21:16;;;;;;;17.42;9.18;;;20.20;81.00;;;;;;5059760;28;20035;-60
2021/09/04 02:23:42;;;;;;;27.92;10.00;;;20.20;81.10;;;;;;5065381;28;20498;-60
2021/09/04 02:26:07;;;;;;;24.23;9.55;;;20.20;81.20;;;;;;5064809;28;20107;-60
2021/09/04 02:28:33;;;;;;;30.85;10.18;;;20.20;81.30;;;;;;5063954;28;20114;-60
2021/09/04 02:30:58;;;;;;;19.17;9.32;;;20.20;81.30;;;;;;5082317;28;20541;-60
2021/09/04 02:33:24;;;;;;;21.50;8.65;;;20.10;81.30;;;;;;5080610;28;20526;-60
2021/09/04 02:35:49;;;;;;;18.48;8.15;;;20.10;81.40;;;;;;5081801;28;20032;-60
2021/09/04 02:38:15;;;;;;;22.98;9.07;;;20.10;81.60;;;;;;5084133;28;20074;-59
2021/09/04 02:40:40;;;;;;;24.70;8.57;;;20.10;81.70;;;;;;5081613;28;20071;-59
2021/09/04 02:43:06;;;;;;;23.42;8.98;;;20.10;81.60;;;;;;5082043;28;20400;-60
2021/09/04 02:45:31;;;;;;;18.48;8.65;;;20.00;81.60;;;;;;5084051;28;21283;-60
2021/09/04 02:47:57;;;;;;;22.40;10.02;;;20.00;81.50;;;;;;5081534;28;20036;-60
2021/09/04 02:50:22;;;;;;;16.70;9.50;;;20.00;81.60;;;;;;5064412;28;20036;-62
2021/09/04 02:52:48;;;;;;;16.33;8.95;;;20.00;81.60;;;;;;5065618;28;20515;-62
2021/09/04 02:55:13;;;;;;;12.93;9.40;;;20.00;81.70;;;;;;5082237;28;20525;-62
2021/09/04 02:57:39;;;;;;;23.02;9.75;;;20.00;81.70;;;;;;5082036;28;20491;-62
2021/09/04 03:00:05;;;;;;;19.88;8.50;;;19.90;81.80;;;;;;5082737;28;20036;-62
2021/09/04 03:02:30;;;;;;;16.35;8.50;;;19.90;81.90;;;;;;5061547;28;20094;-62
2021/09/04 03:04:56;;;;;;;13.75;8.52;;;19.90;82.00;;;;;;5081257;28;20134;-62
2021/09/04 03:07:21;;;;;;;23.00;9.05;;;19.90;82.00;;;;;;5063338;28;20108;-62
2021/09/04 03:09:47;;;;;;;11.57;9.00;;;19.90;82.10;;;;;;5047896;28;20059;-62
2021/09/04 03:12:12;;;;;;;14.95;8.48;;;19.80;82.10;;;;;;5063108;28;20458;-62
2021/09/04 03:14:38;;;;;;;15.20;8.23;;;19.80;82.20;;;;;;5064911;28;20135;-62
2021/09/04 03:17:04;;;;;;;14.73;9.23;;;19.80;82.20;;;;;;5082546;28;20102;-62
2021/09/04 03:19:30;;;;;;;14.40;8.57;;;19.80;82.20;;;;;;5081120;28;20289;-62
2021/09/04 03:21:55;;;;;;;11.95;8.75;;;19.80;82.30;;;;;;5080208;28;20059;-62
2021/09/04 03:24:21;;;;;;;13.70;8.55;;;19.80;82.30;;;;;;5081108;28;20491;-62
2021/09/04 03:26:46;;;;;;;15.68;8.35;;;19.80;82.30;;;;;;5081788;28;20043;-63
2021/09/04 03:29:12;;;;;;;11.50;8.02;;;19.80;82.40;;;;;;5062560;28;20043;-62
2021/09/04 03:31:37;;;;;;;12.02;8.13;;;19.70;82.50;;;;;;5083235;28;20028;-62
2021/09/04 03:34:03;;;;;;;9.93;7.70;;;19.80;82.60;;;;;;5081057;28;20035;-62
2021/09/04 03:36:28;;;;;;;11.13;7.47;;;19.70;82.60;;;;;;5062532;28;20490;-62
2021/09/04 03:38:54;;;;;;;13.45;8.80;;;19.70;82.70;;;;;;5080433;28;20146;-62
2021/09/04 03:41:19;;;;;;;13.18;8.45;;;19.70;82.90;;;;;;5081596;28;20077;-62
2021/09/04 03:43:45;;;;;;;11.75;8.43;;;19.70;82.90;;;;;;5082939;28;20102;-62
2021/09/04 03:46:10;;;;;;;11.93;8.02;;;19.70;83.10;;;;;;5081317;28;20027;-62
2021/09/04 03:48:36;;;;;;;15.13;8.10;;;19.70;83.30;;;;;;5080638;28;20036;-63
2021/09/04 03:51:01;;;;;;;11.27;8.13;;;19.60;83.20;;;;;;5079348;28;20511;-62
2021/09/04 03:53:27;;;;;;;10.70;7.72;;;19.60;83.30;;;;;;5063960;28;20048;-62
2021/09/04 03:55:52;;;;;;;13.18;7.88;;;19.60;83.40;;;;;;5064270;28;20051;-62
2021/09/04 03:58:18;;;;;;;12.05;7.75;;;19.60;83.40;;;;;;5061853;28;20310;-62
2021/09/04 04:00:43;;;;;;;11.80;7.70;;;19.60;83.50;;;;;;5062407;28;20033;-62
2021/09/04 04:03:09;;;;;;;11.57;7.40;;;19.50;83.50;;;;;;5079647;28;20032;-63
2021/09/04 04:05:34;;;;;;;12.05;7.57;;;19.50;83.60;;;;;;5081964;28;20472;-62
2021/09/04 04:08:00;;;;;;;10.02;7.55;;;19.50;83.70;;;;;;5080498;28;20047;-62
2021/09/04 04:10:25;;;;;;;9.25;7.60;;;19.50;83.60;;;;;;5081378;28;20064;-62
2021/09/04 04:12:51;;;;;;;10.00;7.82;;;19.50;83.60;;;;;;5080141;28;20111;-62
2021/09/04 04:15:16;;;;;;;9.98;7.35;;;19.50;83.60;;;;;;5081357;28;20050;-62
2021/09/04 04:17:42;;;;;;;11.23;7.65;;;19.50;83.70;;;;;;5079338;28;20504;-62
2021/09/04 04:20:08;;;;;;;11.00;7.30;;;19.40;83.60;;;;;;5081468;28;20039;-62
2021/09/04 04:22:33;;;;;;;8.98;7.35;;;19.40;83.70;;;;;;5080348;28;20098;-62
2021/09/04 04:24:59;;;;;;;9.23;7.60;;;19.40;83.70;;;;;;5080606;28;20052;-62
2021/09/04 04:27:24;;;;;;;8.65;7.28;;;19.40;83.70;;;;;;5079328;28;20123;-63
2021/09/04 04:29:50;;;;;;;9.95;7.20;;;19.40;83.80;;;;;;5081188;28;20058;-62
2021/09/04 04:32:15;;;;;;;8.75;7.03;;;19.30;83.80;;;;;;5061777;28;20024;-62
2021/09/04 04:34:41;;;;;;;11.18;7.60;;;19.30;83.90;;;;;;5080329;28;20012;-62
2021/09/04 04:37:06;;;;;;;11.77;8.18;;;19.30;84.00;;;;;;5061323;28;20105;-62
2021/09/04 04:39:32;;;;;;;9.35;7.18;;;19.30;84.00;;;;;;5062384;28;21198;-62
2021/09/04 04:41:57;;;;;;;9.35;7.28;;;19.20;84.10;;;;;;5062928;28;20050;-62
2021/09/04 04:44:23;;;;;;;8.85;7.32;;;19.20;84.00;;;;;;5082457;28;20448;-62
2021/09/04 04:46:48;;;;;;;8.43;7.10;;;19.20;84.00;;;;;;5082406;28;20032;-62
2021/09/04 04:49:14;;;;;;;10.05;6.95;;;19.20;84.00;;;;;;5062502;28;20035;-62
2021/09/04 04:51:39;;;;;;;7.88;6.70;;;19.10;84.00;;;;;;5073941;28;20024;-62
2021/09/04 04:54:05;;;;;;;8.43;7.20;;;19.10;84.00;;;;;;5042412;28;20476;-63
2021/09/04 04:56:31;;;;;;;9.05;7.38;;;19.10;84.00;;;;;;5057525;28;20032;-62
2021/09/04 04:58:56;;;;;;;8.80;7.47;;;19.10;84.10;;;;;;5079218;28;20020;-63
2021/09/04 05:01:22;;;;;;;7.90;7.03;;;19.10;84.20;;;;;;5064682;28;20035;-62
2021/09/04 05:03:47;;;;;;;10.48;7.00;;;19.10;84.20;;;;;;5083991;28;20062;-63
2021/09/04 05:06:13;;;;;;;7.88;6.88;;;19.10;84.20;;;;;;5066479;28;20091;-62
2021/09/04 05:08:39;;;;;;;8.50;6.97;;;19.00;84.30;;;;;;5066361;28;20617;-62
2021/09/04 05:11:04;;;;;;;11.73;7.47;;;19.00;84.40;;;;;;5082824;28;20258;-63
2021/09/04 05:13:30;;;;;;;10.07;7.20;;;19.00;84.50;;;;;;5086116;28;20043;-62
2021/09/04 05:15:55;;;;;;;7.80;7.00;;;18.90;84.40;;;;;;5066142;28;20044;-62
2021/09/04 05:18:21;;;;;;;8.60;7.15;;;19.00;84.50;;;;;;5067024;28;20361;-62
2021/09/04 05:20:46;;;;;;;8.13;7.32;;;18.90;84.40;;;;;;5083886;28;20123;-63
2021/09/04 05:23:12;;;;;;;8.95;7.00;;;18.90;84.50;;;;;;5083654;28;20154;-62
2021/09/04 05:25:38;;;;;;;9.27;7.43;;;18.90;84.40;;;;;;5064125;28;20054;-62
2021/09/04 05:28:04;;;;;;;9.68;6.60;;;18.90;84.40;;;;;;5066448;28;20479;-63
2021/09/04 05:30:30;;;;;;;9.50;7.80;;;18.90;84.40;;;;;;5083649;28;20106;-63
2021/09/04 05:32:55;;;;;;;9.70;7.50;;;18.90;84.40;;;;;;5066045;28;20032;-62
2021/09/04 05:35:21;;;;;;;9.20;6.25;;;18.90;84.40;;;;;;5083252;28;20090;-63
2021/09/04 05:37:47;;;;;;;11.40;7.10;;;18.90;84.50;;;;;;5084400;28;20011;-62
2021/09/04 05:40:12;;;;;;;11.95;7.10;;;18.90;84.60;;;;;;5065456;28;20094;-62
2021/09/04 05:42:38;;;;;;;8.95;7.32;;;18.80;84.60;;;;;;5085089;28;20078;-63
2021/09/04 05:45:05;;;;;;;9.65;7.10;;;18.80;84.80;;;;;;5065160;28;20033;-62
2021/09/04 05:47:31;;;;;;;12.07;7.32;;;18.80;84.80;;;;;;5067312;28;20106;-62
2021/09/04 05:49:56;;;;;;;10.55;7.57;;;18.80;84.90;;;;;;5083794;28;20440;-63
2021/09/04 05:52:22;;;;;;;9.82;7.63;;;18.80;85.00;;;;;;5066088;28;20192;-63
2021/09/04 05:54:47;;;;;;;9.15;6.88;;;18.80;85.00;;;;;;5083597;28;20024;-62
2021/09/04 05:57:13;;;;;;;8.65;6.95;;;18.80;85.00;;;;;;5066312;28;20032;-62
2021/09/04 05:59:38;;;;;;;8.05;6.78;;;18.70;85.00;;;;;;5064480;28;20114;-62
2021/09/04 06:02:04;;;;;;;7.90;7.07;;;18.70;85.00;;;;;;5080875;28;20471;-62
2021/09/04 06:04:29;;;;;;;8.55;6.80;;;18.70;85.00;;;;;;5062012;28;20079;-63
2021/09/04 06:06:55;;;;;;;8.30;7.10;;;18.70;85.10;;;;;;5065781;28;20115;-63
2021/09/04 06:09:22;;;;;;;8.25;6.95;;;18.70;85.00;;;;;;5065666;28;20430;-61
2021/09/04 06:11:49;;;;;;;9.88;7.07;;;18.70;85.00;;;;;;5050381;28;20070;-62
2021/09/04 06:14:14;;;;;;;9.55;7.10;;;18.70;85.00;;;;;;5066325;28;20097;-62
2021/09/04 06:16:40;;;;;;;7.57;6.88;;;18.70;85.10;;;;;;5064406;28;20137;-63
2021/09/04 06:19:05;;;;;;;7.88;7.07;;;18.70;85.20;;;;;;5049602;28;20420;-62
2021/09/04 06:21:31;;;;;;;8.23;6.63;;;18.70;85.20;;;;;;5064376;28;20401;-62
2021/09/04 06:23:56;;;;;;;8.52;6.93;;;18.60;85.40;;;;;;5033076;28;20044;-62
2021/09/04 06:26:22;;;;;;;8.60;6.72;;;18.60;85.30;;;;;;5083001;28;20069;-63
2021/09/04 06:28:47;;;;;;;7.47;6.68;;;18.60;85.40;;;;;;5077736;28;20033;-62
2021/09/04 06:31:13;;;;;;;8.68;7.78;;;18.60;85.50;;;;;;5082142;28;20048;-62
2021/09/04 06:33:38;;;;;;;7.68;6.57;;;18.60;85.50;;;;;;5082121;28;20343;-62
2021/09/04 06:36:04;;;;;;;13.23;6.85;;;18.60;85.50;;;;;;5082382;28;20032;-62
2021/09/04 06:38:29;;;;;;;7.28;6.50;;;18.70;85.50;;;;;;5081348;28;20122;-62
2021/09/04 06:40:55;;;;;;;8.10;7.18;;;18.60;85.50;;;;;;5085520;28;20028;-63
2021/09/04 06:43:20;;;;;;;9.52;7.38;;;18.60;85.50;;;;;;5081494;28;20047;-62
2021/09/04 06:45:46;;;;;;;8.85;7.07;;;18.70;85.70;;;;;;5065771;28;20138;-62
2021/09/04 06:48:11;;;;;;;7.75;6.95;;;18.60;85.70;;;;;;5065309;28;20028;-63
2021/09/04 06:50:37;;;;;;;9.65;7.53;;;18.60;85.80;;;;;;5084104;28;20724;-63
2021/09/04 06:53:03;;;;;;;8.98;6.80;;;18.60;85.90;;;;;;5082267;28;20028;-62
2021/09/04 06:55:28;;;;;;;8.48;6.80;;;18.60;85.90;;;;;;5083091;28;21192;-62
2021/09/04 06:57:54;;;;;;;8.50;7.60;;;18.60;85.90;;;;;;5064960;28;20096;-62
2021/09/04 07:00:20;;;;;;;11.23;7.40;;;18.60;86.00;;;;;;5062624;28;20064;-62
2021/09/04 07:02:45;;;;;;;8.15;7.35;;;18.60;86.10;;;;;;5064259;28;20051;-63
2021/09/04 07:05:11;;;;;;;9.10;6.93;;;18.60;86.00;;;;;;5082146;28;20416;-62
2021/09/04 07:07:36;;;;;;;10.55;7.90;;;18.60;85.90;;;;;;5081245;28;20056;-63
2021/09/04 07:10:02;;;;;;;9.27;7.57;;;18.60;85.80;;;;;;5081965;28;20040;-62
2021/09/04 07:12:28;;;;;;;7.15;6.45;;;18.60;85.90;;;;;;5082747;28;20028;-62
2021/09/04 07:14:53;;;;;;;8.30;7.28;;;18.60;85.90;;;;;;5082963;28;20492;-62
2021/09/04 07:17:19;;;;;;;8.05;7.10;;;18.60;86.00;;;;;;5082735;28;20059;-63
2021/09/04 07:19:45;;;;;;;8.50;7.30;;;18.60;86.00;;;;;;5075042;28;20039;-62
2021/09/04 07:22:11;;;;;;;11.00;8.73;;;18.60;86.00;;;;;;5078461;28;20253;-62
2021/09/04 07:24:36;;;;;;;8.63;7.72;;;18.50;86.10;;;;;;5047916;28;20326;-62
2021/09/04 07:27:02;;;;;;;11.27;7.85;;;18.60;86.20;;;;;;5047125;28;20060;-62
2021/09/04 07:29:28;;;;;;;9.10;8.18;;;18.60;86.40;;;;;;5046198;28;20059;-62
2021/09/04 07:31:54;;;;;;;8.32;7.47;;;18.60;86.70;;;;;;5063329;28;20051;-63
2021/09/04 07:34:19;;;;;;;9.23;8.18;;;18.70;86.80;;;;;;5068608;28;20037;-62
2021/09/04 07:36:45;;;;;;;8.48;7.68;;;18.60;86.70;;;;;;5065912;28;20380;-62
2021/09/04 07:39:10;;;;;;;8.35;7.40;;;18.70;87.00;;;;;;5062489;28;20071;-62
2021/09/04 07:41:36;;;;;;;8.50;7.60;;;18.60;87.10;;;;;;5045870;28;20451;-62
2021/09/04 07:44:02;;;;;;;8.75;6.90;;;18.70;86.90;;;;;;5063633;28;20036;-62
2021/09/04 07:46:27;;;;;;;8.20;7.18;;;18.70;87.10;;;;;;5043017;28;20032;-63
2021/09/04 07:48:53;;;;;;;8.40;7.30;;;18.70;87.00;;;;;;5064904;28;20036;-62
2021/09/04 07:51:18;;;;;;;12.27;6.95;;;18.70;86.80;;;;;;5040205;28;20070;-60
2021/09/04 07:53:44;;;;;;;9.90;7.30;;;18.70;86.90;;;;;;5062910;28;20142;-62
2021/09/04 07:56:09;;;;;;;8.18;7.28;;;18.70;87.10;;;;;;5043150;28;20344;-63
2021/09/04 07:58:35;;;;;;;11.38;7.63;;;18.70;87.00;;;;;;5042152;28;20033;-62
2021/09/04 08:01:00;;;;;;;9.77;7.40;;;18.70;87.20;;;;;;5045796;28;20111;-62
2021/09/04 08:03:26;;;;;;;10.32;7.57;;;18.70;87.10;;;;;;5048169;28;20084;-63
2021/09/04 08:05:51;;;;;;;8.40;7.47;;;18.80;87.20;;;;;;5066573;28;20032;-62
2021/09/04 08:08:17;;;;;;;11.65;8.30;;;18.70;87.50;;;;;;5065327;28;20028;-63
2021/09/04 08:10:44;;;;;;;10.05;7.88;;;18.70;87.80;;;;;;5062098;28;20021;-62
2021/09/04 08:13:13;;;;;;;12.85;7.60;;;18.70;88.00;;;;;;5061849;28;20547;-63
2021/09/04 08:15:39;;;;;;;9.43;7.45;;;18.70;88.00;;;;;;5030570;28;20403;-62
2021/09/04 08:18:04;;;;;;;14.20;8.35;;;18.70;88.40;;;;;;5046159;28;20031;-63
2021/09/04 08:20:30;;;;;;;12.10;7.80;;;18.70;88.60;;;;;;5044931;28;20029;-62
2021/09/04 08:22:55;;;;;;;13.00;8.40;;;18.70;88.50;;;;;;5045380;28;20492;-62
2021/09/04 08:25:21;;;;;;;15.98;7.93;;;18.80;88.60;;;;;;5046321;28;20116;-62
2021/09/04 08:27:46;;;;;;;13.65;8.68;;;18.80;88.80;;;;;;5047211;28;20126;-62
2021/09/04 08:30:12;;;;;;;9.35;8.35;;;18.80;89.00;;;;;;5040993;28;20123;-63
2021/09/04 08:32:38;;;;;;;11.48;8.00;;;18.80;89.00;;;;;;5034291;28;20028;-63
2021/09/04 08:35:04;;;;;;;16.08;8.02;;;18.90;89.30;;;;;;5066379;28;20460;-62
2021/09/04 08:37:29;;;;;;;14.57;8.38;;;18.90;89.00;;;;;;5048461;28;20339;-63
2021/09/04 08:39:55;;;;;;;19.60;8.63;;;18.90;89.00;;;;;;5053545;28;20363;-62
2021/09/04 08:42:20;;;;;;;19.13;9.15;;;18.90;89.00;;;;;;5071124;28;20804;-62
2021/09/04 08:44:46;;;;;;;15.50;8.98;;;18.90;89.20;;;;;;5066457;28;20507;-63
2021/09/04 08:47:12;;;;;;;26.83;9.80;;;19.00;89.80;;;;;;5069406;28;20035;-63
2021/09/04 08:49:37;;;;;;;21.98;9.10;;;19.00;89.80;;;;;;5046383;28;20084;-63
2021/09/04 08:52:05;;;;;;;34.83;10.10;;;19.00;89.50;;;;;;5041239;28;20029;-63
2021/09/04 08:54:30;;;;;;;31.42;9.15;;;19.00;89.40;;;;;;5063315;28;20036;-60
2021/09/04 08:56:56;;;;;;;26.17;9.75;;;19.10;89.20;;;;;;5061223;28;20044;-62
2021/09/04 08:59:22;;;;;;;19.95;9.00;;;19.20;89.10;;;;;;5063788;28;20519;-62
2021/09/04 09:01:47;;;;;;;36.72;9.77;;;19.20;89.00;;;;;;5058401;28;20564;-62
2021/09/04 09:04:17;;;;;;;40.53;10.07;;;19.20;88.80;;;;;;5070512;28;20068;-62
2021/09/04 09:06:42;;;;;;;34.28;10.60;;;19.20;88.60;;;;;;5050230;28;20090;-62
2021/09/04 09:09:26;;;;;;;34.70;10.02;;;19.20;88.40;;;;;;5058965;28;20025;-62
2021/09/04 09:11:56;;;;;;;29.48;9.90;;;19.30;88.20;;;;;;5066563;28;20044;-62
2021/09/04 09:14:22;;;;;;;76.22;13.38;;;19.30;88.00;;;;;;5064356;28;20425;-62
2021/09/04 09:16:53;;;;;;;64.10;11.05;;;19.30;87.80;;;;;;5027736;28;20082;-62
2021/09/04 09:19:20;;;;;;;33.60;9.50;;;19.30;88.10;;;;;;5059101;28;20020;-62
2021/09/04 09:21:46;;;;;;;43.97;10.55;;;19.40;87.90;;;;;;5067333;28;20017;-60
2021/09/04 09:24:13;;;;;;;55.20;12.02;;;19.40;87.70;;;;;;5062947;28;20055;-60
2021/09/04 09:26:48;;;;;;;75.85;14.70;;;19.40;87.60;;;;;;5030836;28;20067;-60
2021/09/04 09:29:18;;;;;;;51.60;11.80;;;19.50;87.20;;;;;;5052262;28;20055;-60
2021/09/04 09:31:44;;;;;;;61.83;11.80;;;19.60;87.10;;;;;;5048377;28;20132;-62
2021/09/04 09:34:10;;;;;;;124.85;16.92;;;19.60;87.00;;;;;;5029872;28;20147;-63
2021/09/04 09:36:59;;;;;;;99.93;16.35;;;19.60;87.40;;;;;;5069510;28;20024;-63
2021/09/04 09:39:28;;;;;;;76.90;15.85;;;19.60;87.40;;;;;;5057127;28;20379;-62
2021/09/04 09:41:54;;;;;;;104.10;16.92;;;19.60;87.50;;;;;;5064408;28;20021;-62
2021/09/04 09:44:25;;;;;;;80.88;15.68;;;19.70;87.40;;;;;;5053399;28;20131;-62
2021/09/04 09:46:57;;;;;;;79.10;16.08;;;19.70;87.20;;;;;;5049877;28;20020;-62
2021/09/04 09:49:33;;;;;;;63.95;15.85;;;19.80;87.00;;;;;;5052094;28;20408;-63
2021/09/04 09:52:06;;;;;;;68.10;16.17;;;19.80;87.00;;;;;;5067420;28;20017;-63
2021/09/04 09:54:32;;;;;;;76.03;15.88;;;19.80;87.20;;;;;;5047300;28;20024;-63
2021/09/04 09:56:58;;;;;;;93.70;17.83;;;19.80;87.00;;;;;;5051434;28;20048;-62
2021/09/04 09:59:28;;;;;;;88.55;17.90;;;19.90;86.90;;;;;;5043636;28;20016;-62
2021/09/04 10:01:54;;;;;;;105.78;17.63;;;19.90;87.00;;;;;;5048846;28;20519;-62
2021/09/04 10:04:20;;;;;;;89.45;17.13;;;20.00;87.20;;;;;;5046546;28;20079;-63
2021/09/04 10:06:45;;;;;;;84.00;17.88;;;20.00;87.00;;;;;;5024852;28;20029;-63
2021/09/04 10:09:11;;;;;;;104.50;19.40;;;20.00;86.80;;;;;;5038191;28;20116;-62
2021/09/04 10:11:37;;;;;;;90.10;17.02;;;20.10;86.90;;;;;;5027696;28;20442;-63
2021/09/04 10:14:03;;;;;;;66.55;17.92;;;20.10;86.90;;;;;;5065903;28;20174;-62
2021/09/04 10:16:29;;;;;;;72.95;18.20;;;20.20;86.90;;;;;;5019437;28;20711;-66
2021/09/04 10:18:54;;;;;;;67.75;16.05;;;20.20;86.50;;;;;;5065499;28;20035;-63
2021/09/04 10:21:20;;;;;;;71.25;15.20;;;20.20;86.50;;;;;;5030438;28;20039;-64
2021/09/04 10:23:50;;;;;;;69.75;16.33;;;20.30;86.30;;;;;;5074235;28;20138;-62
2021/09/04 10:26:32;;;;;;;83.38;16.05;;;20.30;86.00;;;;;;5047791;28;20028;-67
2021/09/04 10:29:03;;;;;;;79.65;16.30;;;20.30;85.90;;;;;;5063484;28;20223;-63
2021/09/04 10:31:56;;;;;;;62.92;15.10;;;20.30;85.90;;;;;;5049096;28;20403;-62
2021/09/04 10:34:35;;;;;;;55.28;13.85;;;20.40;85.40;;;;;;5062561;28;20024;-63
2021/09/04 10:37:16;;;;;;;65.45;14.48;;;20.50;85.10;;;;;;5030961;28;20033;-63
2021/09/04 10:39:52;;;;;;;69.60;13.55;;;20.50;84.80;;;;;;5069637;28;20035;-63
2021/09/04 10:42:31;;;;;;;58.40;13.48;;;20.60;84.60;;;;;;5052511;28;20037;-63
2021/09/04 10:45:16;;;;;;;56.85;12.70;;;20.60;84.70;;;;;;5048361;28;20067;-63
2021/09/04 10:47:52;;;;;;;70.68;13.77;;;20.60;84.30;;;;;;5052177;28;20058;-62
2021/09/04 10:50:25;;;;;;;77.05;14.85;;;20.70;84.30;;;;;;5034311;28;20043;-62
2021/09/04 10:52:54;;;;;;;66.18;13.90;;;20.80;84.20;;;;;;5039179;28;20028;-60
2021/09/04 10:55:33;;;;;;;63.63;12.40;;;20.80;83.70;;;;;;5053309;28;20467;-62
2021/09/04 10:58:06;;;;;;;62.88;13.50;;;20.90;83.10;;;;;;5044534;28;20519;-63
2021/09/04 11:00:40;;;;;;;73.68;13.10;;;20.90;82.90;;;;;;5070107;28;20044;-62
2021/09/04 11:03:17;;;;;;;82.40;13.20;;;21.00;82.90;;;;;;5064045;28;20040;-62
2021/09/04 11:05:50;;;;;;;56.15;12.55;;;21.00;82.90;;;;;;5057940;28;20649;-62
2021/09/04 11:08:19;;;;;;;61.45;12.25;;;21.10;82.70;;;;;;5045147;28;20096;-62
2021/09/04 11:10:44;;;;;;;62.67;12.50;;;21.10;82.70;;;;;;5062674;28;20425;-62
2021/09/04 11:13:13;;;;;;;76.65;13.23;;;21.10;82.50;;;;;;5028741;28;20051;-62
2021/09/04 11:15:42;;;;;;;62.55;12.70;;;21.20;82.20;;;;;;5047405;28;20109;-62
2021/09/04 11:18:08;;;;;;;76.45;14.57;;;21.20;81.90;;;;;;5027249;28;20535;-62
2021/09/04 11:20:45;;;;;;;66.78;13.73;;;21.30;81.80;;;;;;5047103;28;20115;-62
2021/09/04 11:23:10;;;;;;;79.90;14.95;;;21.30;81.80;;;;;;5046004;28;20054;-62
2021/09/04 11:25:39;;;;;;;77.72;13.38;;;21.40;81.70;;;;;;5047109;28;20053;-62
2021/09/04 11:28:05;;;;;;;75.78;13.30;;;21.40;81.40;;;;;;5053017;28;20211;-62
2021/09/04 11:30:31;;;;;;;68.05;13.02;;;21.50;81.00;;;;;;5060840;28;20063;-62
2021/09/04 11:33:15;;;;;;;77.45;13.40;;;21.60;81.00;;;;;;5055888;28;20110;-62
2021/09/04 11:35:47;;;;;;;83.85;13.80;;;21.60;80.90;;;;;;5065292;28;20096;-62
2021/09/04 11:38:12;;;;;;;64.90;12.20;;;21.70;80.60;;;;;;5044739;28;20645;-62
2021/09/04 11:40:38;;;;;;;58.10;13.23;;;21.80;80.30;;;;;;5063392;28;20052;-62
2021/09/04 11:43:04;;;;;;;79.82;13.23;;;21.90;80.40;;;;;;5046568;28;20044;-64
2021/09/04 11:45:31;;;;;;;52.47;11.45;;;21.90;80.30;;;;;;5052845;28;20040;-63
2021/09/04 11:47:57;;;;;;;76.93;12.15;;;22.00;80.10;;;;;;5047907;28;20044;-62
2021/09/04 11:50:23;;;;;;;61.50;12.02;;;22.00;79.80;;;;;;5046322;28;20131;-63
2021/09/04 11:52:49;;;;;;;54.75;10.63;;;22.10;79.50;;;;;;5056466;28;20048;-62
2021/09/04 11:55:19;;;;;;;54.13;11.25;;;22.10;79.10;;;;;;5045752;28;20064;-62
2021/09/04 11:57:47;;;;;;;52.22;10.85;;;22.20;78.90;;;;;;5042516;28;20128;-62
2021/09/04 12:00:22;;;;;;;52.47;11.23;;;22.30;78.50;;;;;;5052028;28;20048;-62
2021/09/04 12:02:54;;;;;;;50.95;10.25;;;22.40;78.30;;;;;;5046396;28;20028;-62
2021/09/04 12:05:24;;;;;;;45.85;10.75;;;22.50;78.00;;;;;;5036357;28;20044;-62
2021/09/04 12:07:54;;;;;;;56.22;10.50;;;22.50;77.80;;;;;;5050650;28;20059;-62
2021/09/04 12:10:24;;;;;;;49.63;10.70;;;22.60;77.30;;;;;;5040699;28;20043;-62
2021/09/04 12:12:55;;;;;;;51.95;10.75;;;22.60;77.20;;;;;;5064090;28;20944;-62
2021/09/04 12:15:21;;;;;;;46.60;10.90;;;22.70;77.10;;;;;;5038770;28;20051;-62
2021/09/04 12:17:51;;;;;;;49.58;9.20;;;22.80;77.00;;;;;;5048258;28;20028;-63
2021/09/04 12:20:16;;;;;;;54.17;9.95;;;22.90;76.80;;;;;;5053272;28;20627;-62
2021/09/04 12:22:42;;;;;;;46.00;9.38;;;22.90;76.60;;;;;;5058675;28;20155;-62
2021/09/04 12:25:24;;;;;;;52.08;10.07;;;23.00;76.40;;;;;;5058663;28;20045;-62
2021/09/04 12:27:56;;;;;;;45.67;9.27;;;23.20;76.70;;;;;;5040081;28;20044;-63
2021/09/04 12:30:22;;;;;;;53.63;9.32;;;23.10;76.30;;;;;;5039024;28;20035;-62
2021/09/04 12:32:47;;;;;;;42.00;9.00;;;23.20;75.80;;;;;;5023902;28;20036;-62